Time;durP1;ratioP1;P1;durP2;ratioP2;P2;SDS_P1;SDS_P2;PMS_P1;PMS_P2;Temp;Humidity;BMP_temperature;BMP_pressure;BME280_temperature;BME280_humidity;BME280_pressure;Samples;Min_cycle;Max_cycle;Signal;HPM_P1;HPM_P2
2021/07/13 00:00:16;;;;;;;;;8.75;6.00;;;;;-143.39;100.00;63593.47;4867449;29;45423;-80
2021/07/13 00:02:42;;;;;;;;;5.75;4.00;;;;;-143.39;100.00;63593.47;4850425;29;45613;-80
2021/07/13 00:05:14;;;;;;;;;7.00;6.75;;;;;-143.39;100.00;63593.47;4867320;29;45293;-80
2021/07/13 00:07:41;;;;;;;;;4.25;4.25;;;;;-143.39;100.00;63593.47;4867284;29;45496;-80
2021/07/13 00:10:07;;;;;;;;;6.00;6.00;;;;;-143.39;100.00;63593.47;4867519;29;46106;-80
2021/07/13 00:12:34;;;;;;;;;8.25;6.50;;;;;-143.39;100.00;63593.47;4867578;29;45248;-80
2021/07/13 00:14:59;;;;;;;;;7.50;6.25;;;;;-143.39;100.00;63593.47;4869734;29;45279;-80
2021/07/13 00:17:24;;;;;;;;;6.00;6.00;;;;;-143.39;100.00;63593.47;4848870;29;45289;-80
2021/07/13 00:19:50;;;;;;;;;7.00;6.00;;;;;-143.39;100.00;63593.47;4867006;29;45231;-80
2021/07/13 00:22:15;;;;;;;;;7.25;7.25;;;;;-143.39;100.00;63593.47;4867149;29;45423;-80
2021/07/13 00:24:41;;;;;;;;;8.50;8.50;;;;;-143.39;100.00;63593.47;4865689;29;45482;-80
2021/07/13 00:27:06;;;;;;;;;7.25;6.00;;;;;-143.39;100.00;63593.47;4857902;29;45504;-80
2021/07/13 00:29:32;;;;;;;;;9.00;8.00;;;;;-143.39;100.00;63593.47;4867325;29;45448;-80
2021/07/13 00:31:57;;;;;;;;;11.50;9.00;;;;;-143.39;100.00;63593.47;4851554;29;45429;-80
2021/07/13 00:34:22;;;;;;;;;13.00;9.00;;;;;-143.39;100.00;63593.47;4868178;29;45444;-80
2021/07/13 00:36:48;;;;;;;;;13.25;9.25;;;;;-143.39;100.00;63593.47;4869047;29;45372;-80
2021/07/13 00:39:14;;;;;;;;;14.00;13.00;;;;;-143.39;100.00;63593.47;4867312;29;46483;-80
2021/07/13 00:41:39;;;;;;;;;11.25;9.75;;;;;-143.39;100.00;63593.47;4867585;29;45441;-80
2021/07/13 00:44:05;;;;;;;;;13.25;12.00;;;;;-143.39;100.00;63593.47;4855315;29;45314;-80
2021/07/13 00:46:44;;;;;;;;;12.75;10.75;;;;;-143.39;100.00;63593.47;4873190;29;45563;-81
2021/07/13 00:49:12;;;;;;;;;11.75;11.75;;;;;-143.39;100.00;63593.47;4866594;29;46391;-80
2021/07/13 00:51:38;;;;;;;;;11.00;9.75;;;;;-143.39;100.00;63593.47;4866238;29;45334;-80
2021/07/13 00:54:06;;;;;;;;;10.00;10.00;;;;;-143.39;100.00;63593.47;4866741;29;45353;-81
2021/07/13 00:56:36;;;;;;;;;15.50;14.00;;;;;-143.39;100.00;63593.47;4864833;29;45417;-81
2021/07/13 00:59:01;;;;;;;;;14.50;13.25;;;;;-143.39;100.00;63593.47;4869739;29;46679;-81
2021/07/13 01:01:26;;;;;;;;;13.50;13.00;;;;;-143.39;100.00;63593.47;4867280;29;45415;-81
2021/07/13 01:03:52;;;;;;;;;17.00;12.00;;;;;-143.39;100.00;63593.47;4867032;29;45433;-80
2021/07/13 01:06:21;;;;;;;;;16.50;14.25;;;;;-143.39;100.00;63593.47;4867041;29;45496;-80
2021/07/13 01:09:07;;;;;;;;;19.25;14.25;;;;;-143.39;100.00;63593.47;4866417;29;45371;-81
2021/07/13 01:11:47;;;;;;;;;14.25;12.00;;;;;-143.39;100.00;63593.47;4866397;29;45427;-80
2021/07/13 01:14:32;;;;;;;;;17.75;17.00;;;;;-143.39;100.00;63593.47;4865007;29;45587;-80
2021/07/13 01:17:02;;;;;;;;;20.00;15.50;;;;;-143.39;100.00;63593.47;4864639;29;45452;-80
2021/07/13 01:19:31;;;;;;;;;21.25;16.00;;;;;-143.39;100.00;63593.47;4869484;29;45359;-81
2021/07/13 01:22:28;;;;;;;;;19.75;14.50;;;;;-143.39;100.00;63593.47;4868928;29;45573;-80
2021/07/13 01:25:07;;;;;;;;;19.25;16.50;;;;;-143.39;100.00;63593.47;4865768;29;45417;-80
2021/07/13 01:27:45;;;;;;;;;25.75;17.50;;;;;-143.39;100.00;63593.47;4864200;29;45862;-80
2021/07/13 01:30:16;;;;;;;;;20.00;15.25;;;;;-143.39;100.00;63593.47;4864615;29;47191;-80
2021/07/13 01:32:45;;;;;;;;;15.25;13.00;;;;;-143.39;100.00;63593.47;4864576;29;45973;-80
2021/07/13 01:35:18;;;;;;;;;17.25;15.50;;;;;-143.39;100.00;63593.47;4849028;29;45369;-80
2021/07/13 01:37:51;;;;;;;;;14.50;14.50;;;;;-143.39;100.00;63593.47;4864386;29;45384;-80
2021/07/13 01:40:18;;;;;;;;;19.25;17.25;;;;;-143.39;100.00;63593.47;4865904;29;46165;-80
2021/07/13 01:42:44;;;;;;;;;16.00;12.50;;;;;-143.39;100.00;63593.47;4866224;29;45982;-80
2021/07/13 01:45:11;;;;;;;;;16.25;15.50;;;;;-143.39;100.00;63593.47;4852260;29;45425;-80
2021/07/13 01:47:38;;;;;;;;;17.75;12.25;;;;;-143.39;100.00;63593.47;4866930;29;45500;-80
2021/07/13 01:50:06;;;;;;;;;15.75;13.00;;;;;-143.39;100.00;63593.47;4849189;29;47189;-80
2021/07/13 01:52:33;;;;;;;;;18.75;14.50;;;;;-143.39;100.00;63593.47;4866315;29;45298;-80
2021/07/13 01:55:01;;;;;;;;;15.50;15.25;;;;;-143.39;100.00;63593.47;4866667;29;45239;-80
2021/07/13 01:57:28;;;;;;;;;15.00;12.25;;;;;-143.39;100.00;63593.47;4849718;29;45514;-80
2021/07/13 01:59:56;;;;;;;;;16.00;14.00;;;;;-143.39;100.00;63593.47;4851938;29;48107;-80
2021/07/13 02:02:22;;;;;;;;;17.50;12.25;;;;;-143.39;100.00;63593.47;4869030;29;45195;-80
2021/07/13 02:04:50;;;;;;;;;12.50;10.50;;;;;-143.39;100.00;63593.47;4869660;29;45260;-80
2021/07/13 02:07:16;;;;;;;;;17.00;14.75;;;;;-143.39;100.00;63593.47;4869466;29;45246;-80
2021/07/13 02:09:43;;;;;;;;;11.50;11.50;;;;;-143.39;100.00;63593.47;4866770;29;45464;-80
2021/07/13 02:12:10;;;;;;;;;15.25;12.75;;;;;-143.39;100.00;63593.47;4865541;29;45553;-82
2021/07/13 02:14:35;;;;;;;;;16.00;12.75;;;;;-143.39;100.00;63593.47;4864474;29;45457;-80
2021/07/13 02:17:02;;;;;;;;;14.50;10.25;;;;;-143.39;100.00;63593.47;4865511;29;45503;-80
2021/07/13 02:19:28;;;;;;;;;17.25;10.75;;;;;-143.39;100.00;63593.47;4863461;29;46052;-80
2021/07/13 02:21:55;;;;;;;;;11.50;10.25;;;;;-143.39;100.00;63593.47;4865317;29;45273;-80
2021/07/13 02:24:21;;;;;;;;;13.00;11.75;;;;;-143.39;100.00;63593.47;4865570;29;45451;-81
2021/07/13 02:26:54;;;;;;;;;12.50;9.75;;;;;-143.39;100.00;63593.47;4867517;29;45614;-80
2021/07/13 02:29:52;;;;;;;;;13.50;10.00;;;;;-143.39;100.00;63593.47;4866471;29;45299;-80
2021/07/13 02:32:49;;;;;;;;;14.50;13.25;;;;;-143.39;100.00;63593.47;4861272;29;45849;-80
2021/07/13 02:35:19;;;;;;;;;13.50;10.00;;;;;-143.39;100.00;63593.47;4864471;29;45389;-81
2021/07/13 02:37:46;;;;;;;;;13.00;9.50;;;;;-143.39;100.00;63593.47;4868314;29;45509;-80
2021/07/13 02:40:16;;;;;;;;;13.50;10.50;;;;;-143.39;100.00;63593.47;4867696;29;46598;-80
2021/07/13 02:42:46;;;;;;;;;15.75;11.25;;;;;-143.39;100.00;63593.47;4851773;29;45249;-80
2021/07/13 02:45:14;;;;;;;;;15.50;9.00;;;;;-143.39;100.00;63593.47;4868813;29;45477;-80
2021/07/13 02:47:42;;;;;;;;;12.75;10.00;;;;;-143.39;100.00;63593.47;4871971;29;45305;-80
2021/07/13 02:50:09;;;;;;;;;11.25;10.25;;;;;-143.39;100.00;63593.47;4872052;29;45645;-81
2021/07/13 02:52:36;;;;;;;;;13.00;11.50;;;;;-143.39;100.00;63593.47;4867251;29;45401;-80
2021/07/13 02:55:06;;;;;;;;;11.25;11.25;;;;;-143.39;100.00;63593.47;4866779;29;45731;-80
2021/07/13 02:57:33;;;;;;;;;10.75;9.50;;;;;-143.39;100.00;63593.47;4851228;29;45549;-80
2021/07/13 02:59:59;;;;;;;;;15.75;11.25;;;;;-143.39;100.00;63593.47;4868027;29;45303;-80
2021/07/13 03:02:27;;;;;;;;;13.25;9.75;;;;;-143.39;100.00;63593.47;4868045;29;45220;-80
2021/07/13 03:04:53;;;;;;;;;12.50;10.25;;;;;-143.39;100.00;63593.47;4866691;29;45338;-80
2021/07/13 03:07:20;;;;;;;;;13.00;9.00;;;;;-143.39;100.00;63593.47;4852967;29;45520;-80
2021/07/13 03:09:47;;;;;;;;;14.00;10.25;;;;;-143.39;100.00;63593.47;4870737;29;48155;-80
2021/07/13 03:12:13;;;;;;;;;12.50;8.50;;;;;-143.39;100.00;63593.47;4870404;29;45670;-80
2021/07/13 03:14:41;;;;;;;;;13.50;10.75;;;;;-143.39;100.00;63593.47;4868762;29;45359;-80
2021/07/13 03:17:08;;;;;;;;;12.50;8.25;;;;;-143.39;100.00;63593.47;4849973;29;45808;-80
2021/07/13 03:19:34;;;;;;;;;11.25;9.50;;;;;-143.39;100.00;63593.47;4867695;29;46364;-80
2021/07/13 03:22:01;;;;;;;;;13.50;10.25;;;;;-143.39;100.00;63593.47;4853831;29;45434;-80
2021/07/13 03:24:29;;;;;;;;;9.50;9.50;;;;;-143.39;100.00;63593.47;4868370;29;45261;-80
2021/07/13 03:26:57;;;;;;;;;11.25;10.25;;;;;-143.39;100.00;63593.47;4867879;29;45447;-80
2021/07/13 03:29:23;;;;;;;;;9.50;9.00;;;;;-143.39;100.00;63593.47;4868665;29;45524;-80
2021/07/13 03:31:49;;;;;;;;;12.00;10.50;;;;;-143.39;100.00;63593.47;4853353;29;45541;-80
2021/07/13 03:34:15;;;;;;;;;14.50;11.00;;;;;-143.39;100.00;63593.47;4863402;29;45330;-80
2021/07/13 03:36:41;;;;;;;;;13.25;11.50;;;;;-143.39;100.00;63593.47;4844319;29;45984;-80
2021/07/13 03:39:08;;;;;;;;;17.00;10.25;;;;;-143.39;100.00;63593.47;4869021;29;46225;-80
2021/07/13 03:41:35;;;;;;;;;12.50;9.50;;;;;-143.39;100.00;63593.47;4867709;29;45318;-80
2021/07/13 03:44:03;;;;;;;;;13.75;11.50;;;;;-143.39;100.00;63593.47;4866598;29;45330;-80
2021/07/13 03:46:36;;;;;;;;;15.25;12.00;;;;;-143.39;100.00;63593.47;4866151;29;45849;-80
2021/07/13 03:49:06;;;;;;;;;12.00;10.25;;;;;-143.39;100.00;63593.47;4867453;29;46279;-80
2021/07/13 03:51:43;;;;;;;;;14.00;10.25;;;;;-143.39;100.00;63593.47;4867425;29;45462;-80
2021/07/13 03:54:11;;;;;;;;;9.50;8.50;;;;;-143.39;100.00;63593.47;4867953;29;45198;-80
2021/07/13 03:56:37;;;;;;;;;14.50;13.50;;;;;-143.39;100.00;63593.47;4867522;29;45525;-80
2021/07/13 03:59:03;;;;;;;;;12.50;12.50;;;;;-143.39;100.00;63593.47;4867214;29;45398;-80
2021/07/13 04:01:28;;;;;;;;;15.50;12.50;;;;;-143.39;100.00;63593.47;4866186;29;45951;-80
2021/07/13 04:03:54;;;;;;;;;12.00;10.00;;;;;-143.39;100.00;63593.47;4850549;29;45396;-81
2021/07/13 04:06:19;;;;;;;;;14.75;11.50;;;;;-143.39;100.00;63593.47;4866054;29;45431;-81
2021/07/13 04:08:45;;;;;;;;;15.25;13.75;;;;;-143.39;100.00;63593.47;4866449;29;46317;-81
2021/07/13 04:11:10;;;;;;;;;12.00;11.50;;;;;-143.39;100.00;63593.47;4865564;29;45408;-81
2021/07/13 04:13:36;;;;;;;;;16.00;11.50;;;;;-143.39;100.00;63593.47;4839356;29;45446;-81
2021/07/13 04:16:01;;;;;;;;;17.00;14.50;;;;;-143.39;100.00;63593.47;4871300;29;45517;-81
2021/07/13 04:18:28;;;;;;;;;16.50;13.75;;;;;-143.39;100.00;63593.47;4868395;29;45892;-81
2021/07/13 04:20:54;;;;;;;;;15.00;14.75;;;;;-143.39;100.00;63593.47;4867136;29;45234;-80
2021/07/13 04:23:19;;;;;;;;;14.50;13.75;;;;;-143.39;100.00;63593.47;4866298;29;46006;-80
2021/07/13 04:25:45;;;;;;;;;14.25;12.50;;;;;-143.39;100.00;63593.47;4866827;29;45459;-81
2021/07/13 04:28:10;;;;;;;;;17.50;15.00;;;;;-143.39;100.00;63593.47;4856230;29;46120;-81
2021/07/13 04:30:36;;;;;;;;;17.75;12.75;;;;;-143.39;100.00;63593.47;4864818;29;45569;-81
2021/07/13 04:33:02;;;;;;;;;17.25;15.50;;;;;-143.39;100.00;63593.47;4865639;29;45341;-81
2021/07/13 04:35:28;;;;;;;;;15.25;12.50;;;;;-143.39;100.00;63593.47;4849843;29;45417;-80
2021/07/13 04:37:53;;;;;;;;;15.00;15.00;;;;;-143.39;100.00;63593.47;4868786;29;46167;-82
2021/07/13 04:40:19;;;;;;;;;20.25;15.25;;;;;-143.39;100.00;63593.47;4869968;29;45355;-80
2021/07/13 04:42:44;;;;;;;;;18.50;14.50;;;;;-143.39;100.00;63593.47;4865770;29;45522;-80
2021/07/13 04:45:11;;;;;;;;;17.75;15.75;;;;;-143.39;100.00;63593.47;4867314;29;45335;-82
2021/07/13 04:47:36;;;;;;;;;9.25;9.25;;;;;-143.39;100.00;63593.47;4866700;29;45408;-82
2021/07/13 04:50:07;;;;;;;;;21.00;15.50;;;;;-143.39;100.00;63593.47;4865717;29;45404;-82
2021/07/13 04:52:32;;;;;;;;;17.00;15.25;;;;;-143.39;100.00;63593.47;4866842;29;45265;-82
2021/07/13 04:54:58;;;;;;;;;17.75;15.75;;;;;-143.39;100.00;63593.47;4866143;29;45376;-82
2021/07/13 04:57:23;;;;;;;;;20.25;14.50;;;;;-143.39;100.00;63593.47;4866481;29;46223;-82
2021/07/13 04:59:49;;;;;;;;;18.75;16.25;;;;;-143.39;100.00;63593.47;4868334;29;45348;-82
2021/07/13 05:02:15;;;;;;;;;22.00;15.00;;;;;-143.39;100.00;63593.47;4868631;29;45522;-82
2021/07/13 05:04:40;;;;;;;;;23.00;16.50;;;;;-143.39;100.00;63593.47;4863097;29;45320;-82
2021/07/13 05:07:06;;;;;;;;;20.00;16.50;;;;;-143.39;100.00;63593.47;4866495;29;46292;-82
2021/07/13 05:09:31;;;;;;;;;21.75;17.00;;;;;-143.39;100.00;63593.47;4846195;29;45222;-82
2021/07/13 05:11:57;;;;;;;;;22.25;17.00;;;;;-143.39;100.00;63593.47;4860784;29;46862;-81
2021/07/13 05:14:22;;;;;;;;;25.25;18.00;;;;;-143.39;100.00;63593.47;4863093;29;46025;-82
2021/07/13 05:16:47;;;;;;;;;20.50;16.25;;;;;-143.39;100.00;63593.47;4855561;29;46157;-82
2021/07/13 05:19:14;;;;;;;;;18.50;13.75;;;;;-143.39;100.00;63593.47;4863859;29;45265;-81
2021/07/13 05:21:42;;;;;;;;;20.00;16.00;;;;;-143.39;100.00;63593.47;4868113;29;45315;-82
2021/07/13 05:24:08;;;;;;;;;18.25;15.50;;;;;-143.39;100.00;63593.47;4869406;29;45440;-82
2021/07/13 05:26:33;;;;;;;;;23.00;16.00;;;;;-143.39;100.00;63593.47;4866553;29;46677;-82
2021/07/13 05:29:04;;;;;;;;;18.00;14.50;;;;;-143.39;100.00;63593.47;4866148;29;45472;-82
2021/07/13 05:31:29;;;;;;;;;18.75;14.75;;;;;-143.39;100.00;63593.47;4865932;29;45424;-82
2021/07/13 05:33:57;;;;;;;;;19.50;15.50;;;;;-143.39;100.00;63593.47;4864181;29;45182;-82
2021/07/13 05:36:24;;;;;;;;;18.75;16.00;;;;;-143.39;100.00;63593.47;4861100;29;46128;-82
2021/07/13 05:38:49;;;;;;;;;21.25;17.75;;;;;-143.39;100.00;63593.47;4864195;29;45523;-82
2021/07/13 05:41:15;;;;;;;;;19.75;14.75;;;;;-143.39;100.00;63593.47;4852386;29;45360;-82
2021/07/13 05:43:40;;;;;;;;;20.25;16.00;;;;;-143.39;100.00;63593.47;4864529;29;45862;-82
2021/07/13 05:46:06;;;;;;;;;16.25;15.00;;;;;-143.39;100.00;63593.47;4864833;29;45931;-82
2021/07/13 05:48:31;;;;;;;;;13.50;11.50;;;;;-143.39;100.00;63593.47;4861100;29;45311;-81
2021/07/13 05:50:56;;;;;;;;;23.25;16.00;;;;;-143.39;100.00;63593.47;4857600;29;45318;-82
2021/07/13 05:53:22;;;;;;;;;21.25;14.75;;;;;-143.39;100.00;63593.47;4863470;29;46002;-81
2021/07/13 05:55:47;;;;;;;;;25.50;20.25;;;;;-143.39;100.00;63593.47;4862811;29;46084;-81
2021/07/13 05:58:13;;;;;;;;;21.00;18.00;;;;;-143.39;100.00;63593.47;4859783;29;45786;-81
2021/07/13 06:00:45;;;;;;;;;22.25;18.00;;;;;-143.39;100.00;63593.47;4868257;29;45405;-80
2021/07/13 06:03:11;;;;;;;;;19.75;13.00;;;;;-143.39;100.00;63593.47;4863303;29;45291;-81
2021/07/13 06:05:36;;;;;;;;;15.00;12.00;;;;;-143.39;100.00;63593.47;4865524;29;47094;-80
2021/07/13 06:08:02;;;;;;;;;16.00;15.50;;;;;-143.39;100.00;63593.47;4867227;29;45235;-81
2021/07/13 06:10:27;;;;;;;;;23.25;16.75;;;;;-143.39;100.00;63593.47;4854914;29;45372;-80
2021/07/13 06:12:52;;;;;;;;;21.50;17.00;;;;;-143.39;100.00;63593.47;4872021;29;46054;-80
2021/07/13 06:15:19;;;;;;;;;21.75;18.00;;;;;-143.39;100.00;63593.47;4865637;29;45464;-80
2021/07/13 06:17:44;;;;;;;;;19.25;17.50;;;;;-143.39;100.00;63593.47;4865691;29;45249;-80
2021/07/13 06:20:11;;;;;;;;;19.50;17.00;;;;;-143.39;100.00;63593.47;4852919;29;45245;-80
2021/07/13 06:22:36;;;;;;;;;17.00;13.50;;;;;-143.39;100.00;63593.47;4848158;29;45564;-80
2021/07/13 06:25:03;;;;;;;;;21.75;19.00;;;;;-143.39;100.00;63593.47;4847576;29;45986;-80
2021/07/13 06:27:28;;;;;;;;;21.25;18.75;;;;;-143.39;100.00;63593.47;4851500;29;45488;-81
2021/07/13 06:29:54;;;;;;;;;23.00;17.50;;;;;-143.39;100.00;63593.47;4851190;29;46464;-80
2021/07/13 06:32:19;;;;;;;;;21.25;17.75;;;;;-143.39;100.00;63593.47;4843176;29;45606;-81
2021/07/13 06:34:45;;;;;;;;;19.50;18.00;;;;;-143.39;100.00;63593.47;4845776;29;47169;-81
2021/07/13 06:37:10;;;;;;;;;20.25;16.00;;;;;-143.39;100.00;63593.47;4851081;29;45472;-80
2021/07/13 06:39:36;;;;;;;;;25.75;19.25;;;;;-143.39;100.00;63593.47;4847812;29;45825;-80
2021/07/13 06:42:01;;;;;;;;;26.00;21.50;;;;;-143.39;100.00;63593.47;4847372;29;45420;-79
2021/07/13 06:44:27;;;;;;;;;28.50;22.75;;;;;-143.39;100.00;63593.47;4847820;29;46464;-79
2021/07/13 06:46:52;;;;;;;;;23.75;20.00;;;;;-143.39;100.00;63593.47;4851978;29;45849;-79
2021/07/13 06:49:18;;;;;;;;;22.75;20.50;;;;;-143.39;100.00;63593.47;4847745;29;45335;-79
2021/07/13 06:51:43;;;;;;;;;21.50;17.75;;;;;-143.39;100.00;63593.47;4858848;29;45524;-79
2021/07/13 06:54:08;;;;;;;;;24.50;18.50;;;;;-143.39;100.00;63593.47;4847929;29;45770;-81
2021/07/13 06:56:34;;;;;;;;;21.25;18.00;;;;;-143.39;100.00;63593.47;4855677;29;45476;-81
2021/07/13 06:58:59;;;;;;;;;22.00;19.00;;;;;-143.39;100.00;63593.47;4843188;29;45441;-82
2021/07/13 07:01:25;;;;;;;;;27.25;20.75;;;;;-143.39;100.00;63593.47;4840848;29;45513;-80
2021/07/13 07:03:50;;;;;;;;;23.50;21.25;;;;;-143.39;100.00;63593.47;4847182;29;46178;-80
2021/07/13 07:06:16;;;;;;;;;26.00;20.25;;;;;-143.39;100.00;63593.47;4829356;29;45896;-80
2021/07/13 07:11:38;;;;;;;;;19.75;17.00;;;;;22.05;100.00;100562.38;5111493;27;45426;-84
2021/07/13 07:14:04;;;;;;;;;15.75;14.00;;;;;-143.39;100.00;63593.47;5094602;27;45525;-80
2021/07/13 07:32:32;;;;;;;;;22.75;19.50;;;;;-143.39;100.00;63593.47;741901;26;46140;-83
2021/07/13 07:41:25;;;;;;;;;;;;;;;;;;;;;
2021/07/13 07:47:35;;;;;;;;;31.00;19.25;;;;;-143.39;100.00;63593.47;5062715;28;45675;-84
2021/07/13 07:50:15;;;;;;;;;23.75;21.25;;;;;-143.39;100.00;63593.47;5049097;28;45813;-84
2021/07/13 07:52:41;;;;;;;;;21.50;17.75;;;;;-143.39;100.00;63593.47;5047477;28;45664;-87
2021/07/13 07:55:08;;;;;;;;;17.50;16.50;;;;;-143.39;100.00;63593.47;5046440;28;47674;-88
2021/07/13 07:57:34;;;;;;;;;21.25;18.00;;;;;-143.39;100.00;63593.47;5052467;28;45493;-87
2021/07/13 08:00:34;;;;;;;;;23.00;18.75;;;;;-143.39;100.00;63593.47;5056725;28;45332;-87
2021/07/13 08:03:22;;;;;;;;;22.00;16.00;;;;;-143.39;100.00;63593.47;5056901;28;45490;-86
2021/07/13 08:05:58;;;;;;;;;;;;;;;;;;;;;
2021/07/13 08:09:03;;;;;;;;;;;;;;;;;;;;;
2021/07/13 08:11:37;;;;;;;;;18.75;15.00;;;;;-143.39;100.00;63593.47;5047064;28;45410;-87
2021/07/13 08:14:05;;;;;;;;;23.00;15.50;;;;;-143.39;100.00;63593.47;5043665;28;45461;-84
2021/07/13 08:16:45;;;;;;;;;;;;;;;;;;;;;
2021/07/13 08:19:40;;;;;;;;;;;;;;;;;;;;;
2021/07/13 08:22:27;;;;;;;;;19.00;12.00;;;;;-143.39;100.00;63593.47;5043844;28;67416;-86
2021/07/13 08:24:52;;;;;;;;;15.00;13.50;;;;;-143.39;100.00;63593.47;5037029;28;45481;-84
2021/07/13 08:27:29;;;;;;;;;17.25;11.50;;;;;-143.39;100.00;63593.47;5034994;28;47594;-86
2021/07/13 08:29:57;;;;;;;;;22.50;16.00;;;;;-143.39;100.00;63593.47;5036819;28;45955;-84
2021/07/13 08:32:23;;;;;;;;;19.75;15.00;;;;;-143.39;100.00;63593.47;5032370;28;45377;-84
2021/07/13 08:34:49;;;;;;;;;17.75;13.50;;;;;-143.39;100.00;63593.47;5033014;28;45666;-86
2021/07/13 08:37:20;;;;;;;;;18.00;16.50;;;;;-143.39;100.00;63593.47;5038482;28;45521;-85
2021/07/13 08:39:47;;;;;;;;;13.50;10.50;;;;;-143.39;100.00;63593.47;5037865;28;45344;-85
2021/07/13 08:42:14;;;;;;;;;16.50;15.00;;;;;-143.39;100.00;63593.47;5033115;28;46709;-85
2021/07/13 08:44:41;;;;;;;;;15.75;14.50;;;;;-143.39;100.00;63593.47;5033214;28;45470;-85
2021/07/13 08:47:09;;;;;;;;;17.75;16.50;;;;;-143.39;100.00;63593.47;5032907;28;47542;-85
2021/07/13 08:49:35;;;;;;;;;19.25;17.25;;;;;-143.39;100.00;63593.47;5024759;28;45618;-86
2021/07/13 08:52:05;;;;;;;;;20.00;17.00;;;;;-143.39;100.00;63593.47;5026185;28;45375;-85
2021/07/13 08:54:34;;;;;;;;;20.25;14.00;;;;;-143.39;100.00;63593.47;5032943;28;45568;-85
2021/07/13 08:57:03;;;;;;;;;15.75;14.50;;;;;-143.39;100.00;63593.47;5032647;28;46438;-85
2021/07/13 08:59:28;;;;;;;;;20.00;15.25;;;;;-143.39;100.00;63593.47;5030862;28;45643;-85
2021/07/13 09:01:54;;;;;;;;;20.00;14.25;;;;;-143.39;100.00;63593.47;5032532;28;45774;-84
2021/07/13 09:04:23;;;;;;;;;17.25;14.50;;;;;-143.39;100.00;63593.47;5032051;28;45516;-85
2021/07/13 09:06:56;;;;;;;;;19.25;18.00;;;;;-143.39;100.00;63593.47;5029421;28;46326;-85
2021/07/13 09:09:32;;;;;;;;;22.25;17.00;;;;;-143.39;100.00;63593.47;5028257;28;44932;-85
2021/07/13 09:12:17;;;;;;;;;21.25;15.50;;;;;-143.39;100.00;63593.47;5026824;28;45884;-86
2021/07/13 09:14:56;;;;;;;;;18.50;13.50;;;;;-143.39;100.00;63593.47;5035055;28;45635;-85
2021/07/13 09:17:45;;;;;;;;;16.75;15.00;;;;;-143.39;100.00;63593.47;5033005;28;45541;-86
2021/07/13 09:20:21;;;;;;;;;14.75;14.00;;;;;-143.39;100.00;63593.47;5027240;28;45476;-86
2021/07/13 09:22:59;;;;;;;;;19.50;13.25;;;;;-143.39;100.00;63593.47;5039661;28;45506;-85
2021/07/13 09:25:26;;;;;;;;;16.25;15.25;;;;;-143.39;100.00;63593.47;5024771;28;45339;-85
2021/07/13 09:28:13;;;;;;;;;16.25;14.25;;;;;-143.39;100.00;63593.47;5028961;28;46564;-80
2021/07/13 09:30:41;;;;;;;;;14.00;12.75;;;;;-143.39;100.00;63593.47;5025603;28;45477;-85
2021/07/13 09:33:25;;;;;;;;;20.25;13.75;;;;;-143.39;100.00;63593.47;5032007;28;45465;-85
2021/07/13 09:41:53;;;;;;;;;15.00;14.00;;;;;-143.39;100.00;63593.47;5366290;22;46791;-84
2021/07/13 09:44:27;;;;;;;;;15.50;12.50;;;;;-143.39;100.00;63593.47;5038602;28;45468;-81
2021/07/13 09:46:53;;;;;;;;;15.00;12.00;;;;;-143.39;100.00;63593.47;5039339;28;45516;-84
2021/07/13 09:49:26;;;;;;;;;19.25;14.00;;;;;-143.39;100.00;63593.47;5037489;28;45433;-82
2021/07/13 09:51:58;;;;;;;;;16.00;13.50;;;;;-143.39;100.00;63593.47;5039966;28;45327;-83
2021/07/13 09:54:28;;;;;;;;;22.50;13.25;;;;;-143.39;100.00;63593.47;5025259;28;45493;-83
2021/07/13 09:56:54;;;;;;;;;13.25;13.25;;;;;-143.39;100.00;63593.47;5032043;28;45511;-83
2021/07/13 09:59:19;;;;;;;;;19.75;14.00;;;;;-143.39;100.00;63593.47;5038478;28;47116;-82
2021/07/13 10:01:45;;;;;;;;;17.75;14.00;;;;;-143.39;100.00;63593.47;5043445;28;45617;-83
2021/07/13 10:04:11;;;;;;;;;19.25;16.00;;;;;-143.39;100.00;63593.47;5042302;28;45403;-83
2021/07/13 10:06:38;;;;;;;;;20.50;15.75;;;;;-143.39;100.00;63593.47;5041903;28;45550;-81
2021/07/13 10:09:11;;;;;;;;;18.50;14.25;;;;;-143.39;100.00;63593.47;5040912;28;47321;-81
2021/07/13 10:11:38;;;;;;;;;15.75;12.75;;;;;-143.39;100.00;63593.47;5042549;28;45477;-81
2021/07/13 10:14:06;;;;;;;;;18.00;14.75;;;;;-143.39;100.00;63593.47;5041957;28;45343;-82
2021/07/13 10:16:31;;;;;;;;;18.25;13.25;;;;;-143.39;100.00;63593.47;5041511;28;45462;-82
2021/07/13 10:18:58;;;;;;;;;15.75;15.00;;;;;-143.39;100.00;63593.47;5041709;28;45410;-83
2021/07/13 10:21:25;;;;;;;;;16.50;12.75;;;;;-143.39;100.00;63593.47;5039489;28;45462;-81
2021/07/13 10:23:53;;;;;;;;;14.25;13.25;;;;;-143.39;100.00;63593.47;5039520;28;45351;-83
2021/07/13 10:26:48;;;;;;;;;16.00;14.75;;;;;-143.39;100.00;63593.47;5040301;28;45540;-83
2021/07/13 10:29:32;;;;;;;;;18.75;13.50;;;;;-143.39;100.00;63593.47;5042952;28;45809;-82
2021/07/13 10:32:05;;;;;;;;;17.00;14.25;;;;;-143.39;100.00;63593.47;5039544;28;45362;-82
2021/07/13 10:34:49;;;;;;;;;19.50;16.50;;;;;-143.39;100.00;63593.47;5040927;28;45426;-82
2021/07/13 10:37:25;;;;;;;;;19.75;16.00;;;;;-143.39;100.00;63593.47;5029191;28;45544;-83
2021/07/13 10:39:52;;;;;;;;;23.25;17.50;;;;;-143.39;100.00;63593.47;5019044;28;46210;-82
2021/07/13 10:42:42;;;;;;;;;22.00;16.00;;;;;-143.39;100.00;63593.47;5019408;28;45391;-82
2021/07/13 10:45:12;;;;;;;;;26.25;19.25;;;;;-143.39;100.00;63593.47;5030811;28;45587;-82
2021/07/13 10:47:56;;;;;;;;;22.00;18.00;;;;;-143.39;100.00;63593.47;5030344;28;45356;-83
2021/07/13 10:50:22;;;;;;;;;16.25;15.50;;;;;-143.39;100.00;63593.47;5039555;28;45593;-87
2021/07/13 10:53:17;;;;;;;;;23.50;20.00;;;;;-143.39;100.00;63593.47;5037002;28;45359;-86
2021/07/13 10:56:06;;;;;;;;;21.75;18.00;;;;;-143.39;100.00;63593.47;5043196;28;45434;-87
2021/07/13 10:58:35;;;;;;;;;21.75;15.00;;;;;-143.39;100.00;63593.47;5031452;28;45443;-86
2021/07/13 11:01:32;;;;;;;;;20.00;18.50;;;;;-143.39;100.00;63593.47;5029314;28;46911;-87
2021/07/13 11:04:09;;;;;;;;;22.00;16.50;;;;;-143.39;100.00;63593.47;5042131;28;45354;-86
2021/07/13 11:06:50;;;;;;;;;19.00;16.50;;;;;-143.39;100.00;63593.47;5030119;28;45414;-87
2021/07/13 11:09:29;;;;;;;;;22.75;18.00;;;;;-143.39;100.00;63593.47;5030570;28;45300;-87
2021/07/13 11:12:09;;;;;;;;;22.25;19.25;;;;;-143.39;100.00;63593.47;5033927;28;46241;-87
2021/07/13 11:14:47;;;;;;;;;50.50;41.50;;;;;-143.39;100.00;63593.47;5038313;28;45654;-88
2021/07/13 11:17:18;;;;;;;;;18.50;18.25;;;;;-143.39;100.00;63593.47;5050336;28;45694;-86
2021/07/13 11:19:44;;;;;;;;;19.50;16.25;;;;;-143.39;100.00;63593.47;5043129;28;45384;-87
2021/07/13 11:22:15;;;;;;;;;20.50;18.25;;;;;-143.39;100.00;63593.47;5035768;28;45392;-87
2021/07/13 11:24:41;;;;;;;;;11.75;11.50;;;;;-143.39;100.00;63593.47;5026943;28;45550;-88
2021/07/13 11:27:06;;;;;;;;;17.50;13.75;;;;;-143.39;100.00;63593.47;5030454;28;45438;-88
2021/07/13 11:29:31;;;;;;;;;17.75;17.00;;;;;-143.39;100.00;63593.47;5032936;28;45215;-87
2021/07/13 11:32:00;;;;;;;;;21.25;19.00;;;;;-143.39;100.00;63593.47;5032245;28;47049;-86
2021/07/13 11:34:30;;;;;;;;;21.25;17.25;;;;;-143.39;100.00;63593.47;5037941;28;45426;-87
2021/07/13 11:36:56;;;;;;;;;26.00;19.50;;;;;-143.39;100.00;63593.47;5034946;28;45313;-86
2021/07/13 11:39:23;;;;;;;;;26.00;22.00;;;;;-143.39;100.00;63593.47;5039433;28;45462;-87
2021/07/13 11:41:54;;;;;;;;;25.00;23.00;;;;;-143.39;100.00;63593.47;5037337;28;45534;-86
2021/07/13 11:44:21;;;;;;;;;19.50;16.25;;;;;-143.39;100.00;63593.47;5034236;28;45426;-86
2021/07/13 11:47:02;;;;;;;;;;;;;;;;;;;;;
2021/07/13 11:49:38;;;;;;;;;23.00;16.75;;;;;-143.39;100.00;63593.47;5027299;28;72924;-86